Time;durP1;ratioP1;P1;durP2;ratioP2;P2;SDS_P1;SDS_P2;PMS_P1;PMS_P2;Temp;Humidity;BMP_temperature;BMP_pressure;BME280_temperature;BME280_humidity;BME280_pressure;Samples;Min_cycle;Max_cycle;Signal;HPM_P1;HPM_P2
2022/03/02 00:00:26;;;;;;;32.03;20.37;;;9.60;93.30;;;;;;6121888;23;20154;-86
2022/03/02 00:02:55;;;;;;;39.47;19.73;;;9.60;93.10;;;;;;6123086;23;20146;-84
2022/03/02 00:05:24;;;;;;;35.37;21.53;;;9.70;92.80;;;;;;6122042;23;20233;-85
2022/03/02 00:07:51;;;;;;;33.90;20.10;;;9.70;92.80;;;;;;6121858;23;20185;-84
2022/03/02 00:10:17;;;;;;;34.27;20.70;;;9.60;93.10;;;;;;6122181;23;20142;-85
2022/03/02 00:12:42;;;;;;;36.30;19.77;;;9.70;93.10;;;;;;6121891;23;20200;-85
2022/03/02 00:15:09;;;;;;;32.83;19.63;;;9.60;93.00;;;;;;6121890;23;20143;-85
2022/03/02 00:17:35;;;;;;;36.77;20.50;;;9.60;93.40;;;;;;6121936;23;20146;-85
2022/03/02 00:20:04;;;;;;;35.80;20.27;;;9.50;93.30;;;;;;6122022;23;20161;-85
2022/03/02 00:22:33;;;;;;;33.50;20.57;;;9.60;93.00;;;;;;6121820;23;20518;-86
2022/03/02 00:25:01;;;;;;;38.10;20.57;;;9.60;93.30;;;;;;6121576;23;20532;-85
2022/03/02 00:27:28;;;;;;;32.63;20.07;;;9.60;93.70;;;;;;6121417;23;20180;-85
2022/03/02 00:29:53;;;;;;;33.93;19.23;;;9.50;93.60;;;;;;6121854;23;20170;-86
2022/03/02 00:32:19;;;;;;;31.77;18.77;;;9.50;93.50;;;;;;6121826;23;20161;-85
2022/03/02 00:34:45;;;;;;;33.40;19.07;;;9.50;93.50;;;;;;6121961;23;20591;-86
2022/03/02 00:37:14;;;;;;;32.03;19.77;;;9.40;93.70;;;;;;6121846;23;20150;-86
2022/03/02 00:39:44;;;;;;;36.80;19.93;;;9.40;94.00;;;;;;6121877;23;20219;-85
2022/03/02 00:42:11;;;;;;;35.27;19.83;;;9.40;94.20;;;;;;6121416;23;20185;-85
2022/03/02 00:44:36;;;;;;;33.50;19.87;;;9.40;94.00;;;;;;6121547;23;20161;-85
2022/03/02 00:47:04;;;;;;;34.83;20.33;;;9.40;94.00;;;;;;6121524;23;20197;-85
2022/03/02 00:49:33;;;;;;;39.77;21.50;;;9.30;94.50;;;;;;6121865;23;20164;-85
2022/03/02 00:52:00;;;;;;;39.30;20.23;;;9.30;94.20;;;;;;6121990;23;20153;-85
2022/03/02 00:54:26;;;;;;;38.53;21.27;;;9.30;94.40;;;;;;6121973;23;20150;-85
2022/03/02 00:56:53;;;;;;;36.37;20.00;;;9.20;94.50;;;;;;6121389;23;20154;-86
2022/03/02 00:59:22;;;;;;;39.13;21.57;;;9.20;94.40;;;;;;6121926;23;20444;-86
2022/03/02 01:01:50;;;;;;;34.43;21.53;;;9.20;94.50;;;;;;6121363;23;20150;-85
2022/03/02 01:04:16;;;;;;;37.00;21.07;;;9.30;94.40;;;;;;6121932;23;20174;-85
2022/03/02 01:06:45;;;;;;;36.87;21.27;;;9.20;94.70;;;;;;6121498;23;20156;-85
2022/03/02 01:09:12;;;;;;;33.90;19.90;;;9.20;94.90;;;;;;6121892;23;20642;-86
2022/03/02 01:11:38;;;;;;;37.53;20.43;;;9.10;94.90;;;;;;6121408;23;20166;-86
2022/03/02 01:14:05;;;;;;;34.13;19.73;;;9.10;94.90;;;;;;6121942;23;20155;-85
2022/03/02 01:16:33;;;;;;;34.17;20.73;;;9.10;95.00;;;;;;6121652;23;20653;-85
2022/03/02 01:19:02;;;;;;;34.53;20.27;;;9.10;95.10;;;;;;6121749;23;20529;-85
2022/03/02 01:21:29;;;;;;;36.70;21.33;;;9.10;95.20;;;;;;6122968;23;20139;-85
2022/03/02 01:23:56;;;;;;;36.10;21.77;;;9.10;95.10;;;;;;6121330;23;20146;-86
2022/03/02 01:26:29;;;;;;;36.73;21.20;;;9.10;95.10;;;;;;6121584;23;20142;-85
2022/03/02 01:28:55;;;;;;;36.23;21.27;;;9.20;95.20;;;;;;6121670;23;20206;-84
2022/03/02 01:31:26;;;;;;;37.83;22.47;;;9.10;95.10;;;;;;6121592;23;20154;-87
2022/03/02 01:33:53;;;;;;;36.20;20.97;;;9.20;95.20;;;;;;6121575;23;20154;-85
2022/03/02 01:36:23;;;;;;;35.60;20.83;;;9.10;95.20;;;;;;6122947;23;20613;-84
2022/03/02 01:38:52;;;;;;;39.17;21.87;;;9.20;95.50;;;;;;6121546;23;20524;-85
2022/03/02 01:41:21;;;;;;;34.03;20.90;;;9.10;95.80;;;;;;6121046;23;20161;-85
2022/03/02 01:43:49;;;;;;;35.97;21.73;;;9.20;95.40;;;;;;6122993;23;20138;-85
2022/03/02 01:46:16;;;;;;;36.30;21.00;;;9.10;95.30;;;;;;6121589;23;20173;-85
2022/03/02 01:48:44;;;;;;;39.27;22.80;;;9.10;96.10;;;;;;6121193;23;20197;-85
2022/03/02 01:51:11;;;;;;;38.60;22.10;;;9.20;95.50;;;;;;6121364;23;20145;-85
2022/03/02 01:53:41;;;;;;;37.13;21.73;;;9.20;95.10;;;;;;6121339;23;20142;-85
2022/03/02 01:56:07;;;;;;;38.57;20.70;;;9.10;95.60;;;;;;6121172;23;20146;-85
2022/03/02 01:58:35;;;;;;;36.73;21.77;;;9.10;95.90;;;;;;6121412;23;20609;-84
2022/03/02 02:01:02;;;;;;;38.20;21.83;;;9.10;96.00;;;;;;6121662;23;20142;-85
2022/03/02 02:03:28;;;;;;;39.07;22.00;;;9.00;96.00;;;;;;6121488;23;20142;-85
2022/03/02 02:05:54;;;;;;;35.83;21.23;;;8.90;96.00;;;;;;6121306;23;20150;-85
2022/03/02 02:08:20;;;;;;;37.17;21.60;;;9.00;96.00;;;;;;6121187;23;20185;-86
2022/03/02 02:10:48;;;;;;;35.87;21.90;;;9.10;96.00;;;;;;6121032;23;20229;-85
2022/03/02 02:13:14;;;;;;;35.10;21.80;;;9.00;96.00;;;;;;6120367;23;20163;-85
2022/03/02 02:15:40;;;;;;;34.87;21.20;;;9.00;96.00;;;;;;6121378;23;20172;-85
2022/03/02 02:18:07;;;;;;;41.47;21.63;;;9.00;96.10;;;;;;6121358;23;20154;-84
2022/03/02 02:20:40;;;;;;;36.13;20.60;;;8.90;96.70;;;;;;6121222;23;20575;-84
2022/03/02 02:23:07;;;;;;;35.13;19.67;;;8.90;97.00;;;;;;6121119;23;20146;-84
2022/03/02 02:25:34;;;;;;;40.37;21.20;;;8.90;96.80;;;;;;6121085;23;20208;-85
2022/03/02 02:28:02;;;;;;;38.03;21.73;;;8.90;96.80;;;;;;6121100;23;20555;-84
2022/03/02 02:30:30;;;;;;;34.33;21.53;;;9.00;97.20;;;;;;6121075;23;20240;-85
2022/03/02 02:32:57;;;;;;;34.07;21.20;;;9.00;96.70;;;;;;6121128;23;20154;-84
2022/03/02 02:35:27;;;;;;;34.57;19.83;;;8.90;96.80;;;;;;6121323;23;20153;-85
2022/03/02 02:37:54;;;;;;;34.17;20.23;;;8.80;97.20;;;;;;6120748;23;20501;-84
2022/03/02 02:40:21;;;;;;;34.40;20.53;;;8.80;97.20;;;;;;6120957;23;20142;-84
2022/03/02 02:42:49;;;;;;;33.37;20.20;;;8.80;97.20;;;;;;6121161;23;20162;-84
2022/03/02 02:45:22;;;;;;;35.60;20.20;;;8.90;97.10;;;;;;6122449;23;20138;-85
2022/03/02 02:47:54;;;;;;;33.77;20.13;;;9.00;96.80;;;;;;6120621;23;20182;-85
2022/03/02 02:50:23;;;;;;;36.03;20.47;;;8.90;97.10;;;;;;6121077;23;20146;-85
2022/03/02 02:52:52;;;;;;;34.23;19.77;;;8.80;97.20;;;;;;6120808;23;20637;-84
2022/03/02 02:55:18;;;;;;;35.23;20.57;;;8.80;97.50;;;;;;6120917;23;20157;-84
2022/03/02 02:57:45;;;;;;;36.40;20.70;;;8.80;97.50;;;;;;6120873;23;20170;-85
2022/03/02 03:00:15;;;;;;;43.60;20.57;;;8.90;97.80;;;;;;6120848;23;20143;-85
2022/03/02 03:02:46;;;;;;;33.93;20.30;;;9.00;97.50;;;;;;6120433;23;20157;-83
2022/03/02 03:05:16;;;;;;;36.27;20.43;;;8.90;97.70;;;;;;6120956;23;20636;-84
2022/03/02 03:07:44;;;;;;;37.57;21.20;;;9.00;97.50;;;;;;6120443;23;20182;-84
2022/03/02 03:10:13;;;;;;;34.63;20.13;;;9.00;97.20;;;;;;6121034;23;20142;-85
2022/03/02 03:12:44;;;;;;;33.50;20.20;;;8.80;97.60;;;;;;6120924;23;20158;-85
2022/03/02 03:15:12;;;;;;;34.77;19.83;;;8.80;97.70;;;;;;6120962;23;20146;-85
2022/03/02 03:17:39;;;;;;;36.43;20.20;;;8.80;97.70;;;;;;6120702;23;20233;-84
2022/03/02 03:20:10;;;;;;;35.47;19.50;;;8.90;97.10;;;;;;6120627;23;20138;-84
2022/03/02 03:22:38;;;;;;;36.23;21.13;;;8.80;97.50;;;;;;6120347;23;20174;-84
2022/03/02 03:25:07;;;;;;;35.43;20.57;;;8.80;97.70;;;;;;6122102;23;20224;-84
2022/03/02 03:27:33;;;;;;;36.63;20.20;;;8.80;97.60;;;;;;6122181;23;20173;-84
2022/03/02 03:29:59;;;;;;;36.87;20.63;;;8.90;97.20;;;;;;6121949;23;20180;-84
2022/03/02 03:32:27;;;;;;;33.47;19.33;;;8.80;98.00;;;;;;6122238;23;20146;-84
2022/03/02 03:34:54;;;;;;;33.00;19.73;;;8.70;98.20;;;;;;6122102;23;20150;-85
2022/03/02 03:37:20;;;;;;;34.10;20.20;;;8.60;98.50;;;;;;6121982;23;20224;-84
2022/03/02 03:39:48;;;;;;;30.80;20.00;;;8.60;98.90;;;;;;6121891;23;20146;-85
2022/03/02 03:42:14;;;;;;;33.97;20.53;;;8.50;99.00;;;;;;6122365;23;20158;-84
2022/03/02 03:44:43;;;;;;;36.07;20.60;;;8.60;99.00;;;;;;6122024;23;20847;-84
2022/03/02 03:47:09;;;;;;;32.27;20.40;;;8.60;99.10;;;;;;6121915;23;20576;-85
2022/03/02 03:49:36;;;;;;;36.87;20.40;;;8.60;99.00;;;;;;6123254;23;20153;-84
2022/03/02 03:52:03;;;;;;;34.40;20.07;;;8.80;98.30;;;;;;6121490;23;20200;-84
2022/03/02 03:54:30;;;;;;;36.00;19.73;;;8.70;98.70;;;;;;6122017;23;20150;-84
2022/03/02 03:56:56;;;;;;;30.40;19.67;;;8.60;99.70;;;;;;6121824;23;20203;-85
2022/03/02 03:59:21;;;;;;;31.20;19.27;;;8.50;99.80;;;;;;6121834;23;20225;-86
2022/03/02 04:01:47;;;;;;;34.47;19.73;;;8.40;99.90;;;;;;6121929;23;20153;-85
2022/03/02 04:04:14;;;;;;;32.13;18.90;;;8.40;99.90;;;;;;6122175;23;20142;-85
2022/03/02 04:06:40;;;;;;;30.87;18.53;;;8.40;99.90;;;;;;6121666;23;20510;-85
2022/03/02 04:09:08;;;;;;;34.63;19.73;;;8.30;99.90;;;;;;6121515;23;20182;-85
2022/03/02 04:11:34;;;;;;;33.67;19.63;;;8.30;99.90;;;;;;6121492;23;20233;-84
2022/03/02 04:14:00;;;;;;;31.07;19.60;;;8.30;99.90;;;;;;6122058;23;20185;-84
2022/03/02 04:16:32;;;;;;;33.43;19.53;;;8.20;99.90;;;;;;6123379;23;20146;-85
2022/03/02 04:18:58;;;;;;;38.30;18.97;;;8.20;99.90;;;;;;6121946;23;20138;-85
2022/03/02 04:21:26;;;;;;;33.93;19.67;;;8.10;99.90;;;;;;6121326;23;20193;-84
2022/03/02 04:23:53;;;;;;;29.20;17.90;;;8.10;99.90;;;;;;6121870;23;20250;-84
2022/03/02 04:26:20;;;;;;;28.53;19.37;;;8.10;99.90;;;;;;6121727;23;20601;-84
2022/03/02 04:28:47;;;;;;;32.23;18.93;;;8.10;99.90;;;;;;6121630;23;20711;-84
2022/03/02 04:31:15;;;;;;;31.67;19.30;;;8.00;99.90;;;;;;6121789;23;20174;-84
2022/03/02 04:33:42;;;;;;;32.93;19.53;;;8.10;99.90;;;;;;6121710;23;20142;-84
2022/03/02 04:36:09;;;;;;;31.73;18.60;;;8.00;99.90;;;;;;6121093;23;20241;-84
2022/03/02 04:38:38;;;;;;;31.77;18.70;;;8.00;99.90;;;;;;6122175;23;20222;-85
2022/03/02 04:41:04;;;;;;;36.37;18.10;;;8.00;99.90;;;;;;6121554;23;20178;-85
2022/03/02 04:43:30;;;;;;;30.77;18.23;;;8.00;99.90;;;;;;6121594;23;20154;-84
2022/03/02 04:45:59;;;;;;;32.17;19.90;;;8.00;99.90;;;;;;6121343;23;20168;-85
2022/03/02 04:48:27;;;;;;;32.73;19.53;;;8.00;99.90;;;;;;6121123;23;20623;-84
2022/03/02 04:50:53;;;;;;;34.07;19.03;;;8.00;99.90;;;;;;6121680;23;20674;-84
2022/03/02 04:53:23;;;;;;;32.63;17.60;;;8.00;99.90;;;;;;6121777;23;20150;-84
2022/03/02 04:55:50;;;;;;;34.63;18.47;;;7.80;99.90;;;;;;6121605;23;20168;-84
2022/03/02 04:58:17;;;;;;;34.70;19.13;;;7.80;99.90;;;;;;6121857;23;20182;-85
2022/03/02 05:00:44;;;;;;;30.90;18.40;;;7.80;99.90;;;;;;6121718;23;20146;-84
2022/03/02 05:03:11;;;;;;;33.97;18.67;;;7.80;99.90;;;;;;6121439;23;20154;-84
2022/03/02 05:05:39;;;;;;;29.80;18.70;;;7.90;99.90;;;;;;6121670;23;20591;-84
2022/03/02 05:08:07;;;;;;;30.27;17.87;;;7.80;99.90;;;;;;6121927;23;20189;-85
2022/03/02 05:10:32;;;;;;;34.90;19.63;;;7.70;99.90;;;;;;6121355;23;20138;-85
2022/03/02 05:13:02;;;;;;;27.70;17.33;;;7.70;99.90;;;;;;6123408;23;20162;-84
2022/03/02 05:15:30;;;;;;;29.20;18.30;;;7.70;99.90;;;;;;6123050;23;20575;-84
2022/03/02 05:17:58;;;;;;;36.27;19.27;;;7.80;99.90;;;;;;6121260;23;20156;-83
2022/03/02 05:20:25;;;;;;;33.90;19.60;;;8.00;99.90;;;;;;6121652;23;20195;-84
2022/03/02 05:22:52;;;;;;;30.80;17.80;;;8.00;99.90;;;;;;6121331;23;20519;-85
2022/03/02 05:25:20;;;;;;;33.37;19.07;;;8.00;99.90;;;;;;6121735;23;20173;-84
2022/03/02 05:27:50;;;;;;;31.10;18.30;;;7.90;99.90;;;;;;6121385;23;20637;-84
2022/03/02 05:30:17;;;;;;;36.40;18.93;;;7.80;99.90;;;;;;6122628;23;20206;-85
2022/03/02 05:32:43;;;;;;;36.67;19.33;;;7.70;99.90;;;;;;6122612;23;20142;-84
2022/03/02 05:35:10;;;;;;;35.53;19.37;;;7.60;99.90;;;;;;6122821;23;20444;-85
2022/03/02 05:37:42;;;;;;;34.17;18.27;;;7.70;99.90;;;;;;6121444;23;20196;-84
2022/03/02 05:40:11;;;;;;;35.10;18.70;;;7.70;99.90;;;;;;6122674;23;20632;-83
2022/03/02 05:42:39;;;;;;;34.07;19.27;;;7.60;99.90;;;;;;6122633;23;20158;-84
2022/03/02 05:45:05;;;;;;;33.67;18.77;;;7.60;99.90;;;;;;6121132;23;20184;-83
2022/03/02 05:47:32;;;;;;;32.93;19.10;;;7.70;99.90;;;;;;6120036;23;20213;-82
2022/03/02 05:49:58;;;;;;;33.93;17.93;;;7.80;99.90;;;;;;6120825;23;20288;-84
2022/03/02 05:52:24;;;;;;;35.30;18.93;;;7.70;99.90;;;;;;6120382;23;20181;-84
2022/03/02 05:54:50;;;;;;;30.73;18.87;;;7.60;99.90;;;;;;6120695;23;20241;-84
2022/03/02 05:57:17;;;;;;;33.60;18.47;;;7.60;99.90;;;;;;6121125;23;20247;-84
2022/03/02 05:59:44;;;;;;;28.40;17.60;;;7.60;99.90;;;;;;6120440;23;20571;-84
2022/03/02 06:02:11;;;;;;;31.20;18.17;;;7.60;99.90;;;;;;6120136;23;20141;-83
2022/03/02 06:04:37;;;;;;;36.33;18.97;;;7.80;99.90;;;;;;6120812;23;20146;-84
2022/03/02 06:07:03;;;;;;;34.27;19.07;;;8.00;99.90;;;;;;6121178;23;20153;-84
2022/03/02 06:09:29;;;;;;;43.67;19.70;;;8.10;99.90;;;;;;6120874;23;20235;-84
2022/03/02 06:11:55;;;;;;;29.27;17.63;;;8.00;99.90;;;;;;6120090;23;20158;-84
2022/03/02 06:14:21;;;;;;;33.70;19.43;;;7.90;99.90;;;;;;6120735;23;20156;-83
2022/03/02 06:16:48;;;;;;;33.70;18.27;;;8.10;99.90;;;;;;6120332;23;20240;-84
2022/03/02 06:19:16;;;;;;;31.17;18.40;;;8.10;99.90;;;;;;6120666;23;20149;-85
2022/03/02 06:21:47;;;;;;;30.07;18.07;;;8.00;99.90;;;;;;6120680;23;20573;-84
2022/03/02 06:24:14;;;;;;;31.67;18.23;;;7.90;99.90;;;;;;6120661;23;20191;-83
2022/03/02 06:26:41;;;;;;;32.10;17.87;;;7.90;99.90;;;;;;6120701;23;20188;-84
2022/03/02 06:29:10;;;;;;;30.60;18.33;;;8.00;99.90;;;;;;6120945;23;20189;-85
2022/03/02 06:31:37;;;;;;;31.00;18.07;;;8.00;99.90;;;;;;6120753;23;20228;-84
2022/03/02 06:34:05;;;;;;;33.20;18.00;;;7.90;99.90;;;;;;6120947;23;20237;-84
2022/03/02 06:36:30;;;;;;;29.03;17.40;;;7.90;99.90;;;;;;6116215;23;20273;-88
2022/03/02 06:38:57;;;;;;;29.17;17.63;;;7.80;99.90;;;;;;6120130;23;20200;-85
2022/03/02 06:41:41;;;;;;;30.63;18.20;;;7.70;99.90;;;;;;6120155;23;20165;-87
2022/03/02 06:44:36;;;;;;;34.87;17.83;;;7.70;99.90;;;;;;6119685;23;20158;-84
2022/03/02 06:47:09;;;;;;;33.47;19.37;;;7.70;99.90;;;;;;6120492;23;20174;-86
2022/03/02 06:49:59;;;;;;;30.10;17.63;;;7.80;99.90;;;;;;6120350;23;20176;-84
2022/03/02 06:52:32;;;;;;;34.90;17.93;;;7.80;99.90;;;;;;6120208;23;20190;-85
2022/03/02 06:55:00;;;;;;;35.97;17.63;;;7.70;99.90;;;;;;6120291;23;20154;-86
2022/03/02 06:57:28;;;;;;;31.60;18.57;;;7.70;99.90;;;;;;6121034;23;20179;-86
2022/03/02 07:00:00;;;;;;;32.13;19.37;;;7.90;99.90;;;;;;6121488;23;20211;-85
2022/03/02 07:03:02;;;;;;;37.47;19.43;;;8.00;99.90;;;;;;6122489;23;20160;-85
2022/03/02 07:05:29;;;;;;;33.10;18.03;;;8.00;99.90;;;;;;6077430;23;20188;-85
2022/03/02 07:07:54;;;;;;;36.50;19.23;;;8.10;99.90;;;;;;6120541;23;20496;-83
2022/03/02 07:10:20;;;;;;;28.77;17.47;;;8.10;99.90;;;;;;6120972;23;20299;-85
2022/03/02 07:12:46;;;;;;;31.57;17.93;;;8.10;99.90;;;;;;6121980;23;20188;-85
2022/03/02 07:15:12;;;;;;;31.50;18.00;;;8.10;99.90;;;;;;6121523;23;20155;-86
2022/03/02 07:17:40;;;;;;;39.63;19.80;;;8.10;99.90;;;;;;6123130;23;20233;-84
2022/03/02 07:20:08;;;;;;;36.23;19.37;;;8.00;99.90;;;;;;6122123;23;20153;-84
2022/03/02 07:22:40;;;;;;;32.37;19.03;;;8.00;99.90;;;;;;6121930;23;20253;-83
2022/03/02 07:25:29;;;;;;;31.00;18.83;;;8.10;99.90;;;;;;6123092;23;20180;-86
2022/03/02 07:27:57;;;;;;;32.53;19.13;;;8.10;99.90;;;;;;6120802;23;20193;-87
2022/03/02 07:30:23;;;;;;;30.57;18.20;;;8.20;99.90;;;;;;6123341;23;20165;-87
2022/03/02 07:32:54;;;;;;;35.53;19.43;;;8.30;99.90;;;;;;6121998;23;20498;-84
2022/03/02 07:35:22;;;;;;;32.50;18.40;;;8.40;99.90;;;;;;6121535;23;20493;-87
2022/03/02 07:37:50;;;;;;;33.87;18.40;;;8.40;99.90;;;;;;6123275;23;20217;-83
2022/03/02 07:40:18;;;;;;;30.53;18.03;;;8.40;99.90;;;;;;6121993;23;20146;-84
2022/03/02 07:42:45;;;;;;;35.60;17.50;;;8.50;99.90;;;;;;6121519;23;20183;-87
2022/03/02 07:45:12;;;;;;;36.10;18.47;;;8.60;99.90;;;;;;6121885;23;20481;-83
2022/03/02 07:47:41;;;;;;;36.20;18.47;;;8.60;99.90;;;;;;6121873;23;20520;-86
2022/03/02 07:50:08;;;;;;;37.03;18.03;;;8.70;99.90;;;;;;6124062;23;20208;-85
2022/03/02 07:52:37;;;;;;;32.77;18.33;;;8.70;99.70;;;;;;6122097;23;20638;-84
2022/03/02 07:55:09;;;;;;;35.07;18.07;;;8.80;99.10;;;;;;6121518;23;20150;-84
2022/03/02 07:57:41;;;;;;;32.03;18.17;;;8.90;98.40;;;;;;6122000;23;20206;-84
2022/03/02 08:00:11;;;;;;;32.43;17.17;;;9.10;97.90;;;;;;6122049;23;20154;-84
2022/03/02 08:02:42;;;;;;;32.50;17.23;;;9.20;97.50;;;;;;6123513;23;20138;-86
2022/03/02 08:05:10;;;;;;;36.00;17.70;;;9.20;97.00;;;;;;6122268;23;20157;-83
2022/03/02 08:07:36;;;;;;;29.90;16.73;;;9.30;96.90;;;;;;6122686;23;20223;-85
2022/03/02 08:10:03;;;;;;;27.97;16.93;;;9.30;96.80;;;;;;6121760;23;20230;-85
2022/03/02 08:12:30;;;;;;;32.77;18.23;;;9.40;96.40;;;;;;6121992;23;20150;-84
2022/03/02 08:14:58;;;;;;;33.80;17.97;;;9.40;96.70;;;;;;6123290;23;20138;-84
2022/03/02 08:17:24;;;;;;;28.43;16.67;;;9.60;95.80;;;;;;6122304;23;20571;-84
2022/03/02 08:19:50;;;;;;;28.77;16.23;;;9.70;95.60;;;;;;6121928;23;20150;-87
2022/03/02 08:22:22;;;;;;;29.23;17.53;;;9.60;95.70;;;;;;6121817;23;20154;-85
2022/03/02 08:25:10;;;;;;;30.47;16.77;;;9.70;95.50;;;;;;6122109;23;20200;-85
2022/03/02 08:27:41;;;;;;;30.37;16.33;;;9.80;95.00;;;;;;6121354;23;20177;-84
2022/03/02 08:30:09;;;;;;;28.67;16.57;;;9.90;94.80;;;;;;6121687;23;20204;-85
2022/03/02 08:32:45;;;;;;;28.23;16.10;;;10.00;94.50;;;;;;6122103;23;20249;-87
2022/03/02 08:35:14;;;;;;;25.00;15.47;;;10.00;94.30;;;;;;6122019;23;20158;-87
2022/03/02 08:37:43;;;;;;;27.07;15.60;;;10.10;93.80;;;;;;6121245;23;20182;-86
2022/03/02 08:40:12;;;;;;;26.40;15.37;;;10.10;93.60;;;;;;6121773;23;20232;-84
2022/03/02 08:42:38;;;;;;;23.03;14.50;;;10.20;93.50;;;;;;6121657;23;20154;-88
2022/03/02 08:45:06;;;;;;;26.10;15.53;;;10.20;93.30;;;;;;6121974;23;20150;-86
2022/03/02 08:47:32;;;;;;;26.90;15.57;;;10.40;92.60;;;;;;6121679;23;20252;-86
2022/03/02 08:49:59;;;;;;;22.77;14.47;;;10.40;92.60;;;;;;6122410;23;20231;-86
2022/03/02 08:52:31;;;;;;;25.33;15.17;;;10.50;92.50;;;;;;6121788;23;20158;-87
2022/03/02 08:55:04;;;;;;;29.90;14.63;;;10.50;92.50;;;;;;6121821;23;20586;-87
2022/03/02 08:57:34;;;;;;;25.03;14.83;;;10.50;92.40;;;;;;6121986;23;20201;-86
2022/03/02 09:00:06;;;;;;;23.73;14.30;;;10.60;92.10;;;;;;6121714;23;20153;-87
2022/03/02 09:02:39;;;;;;;27.67;14.53;;;10.60;91.90;;;;;;6121954;23;20161;-85
2022/03/02 09:05:07;;;;;;;23.83;14.47;;;10.60;91.90;;;;;;6123119;23;20562;-87
2022/03/02 09:07:34;;;;;;;24.50;14.07;;;10.80;91.50;;;;;;6121574;23;20186;-86
2022/03/02 09:10:01;;;;;;;26.93;14.03;;;11.00;91.10;;;;;;6121922;23;20237;-84
2022/03/02 09:12:28;;;;;;;24.83;13.43;;;10.90;91.00;;;;;;6123340;23;20219;-85
2022/03/02 09:14:56;;;;;;;26.27;12.87;;;11.00;91.10;;;;;;6121452;23;20165;-84
2022/03/02 09:17:25;;;;;;;18.07;11.53;;;11.20;90.30;;;;;;6121643;23;20151;-84
2022/03/02 09:19:58;;;;;;;20.13;12.07;;;11.20;89.40;;;;;;6122231;23;20154;-87
2022/03/02 09:22:25;;;;;;;24.47;12.67;;;11.30;88.90;;;;;;6121384;23;20151;-84
2022/03/02 09:24:51;;;;;;;23.60;14.30;;;11.30;89.10;;;;;;6121393;23;20158;-85
2022/03/02 09:27:20;;;;;;;25.10;14.30;;;11.30;89.50;;;;;;6121816;23;20194;-85
2022/03/02 09:29:51;;;;;;;28.37;14.50;;;11.50;89.40;;;;;;6121794;23;20171;-85
2022/03/02 09:32:19;;;;;;;26.63;16.67;;;11.60;89.60;;;;;;6121503;23;20167;-84
2022/03/02 09:34:48;;;;;;;25.60;15.77;;;11.70;91.00;;;;;;6121921;23;20159;-85
2022/03/02 09:37:16;;;;;;;27.87;15.70;;;11.70;90.80;;;;;;6121455;23;20146;-85
2022/03/02 09:39:43;;;;;;;26.07;15.97;;;11.50;90.50;;;;;;6121361;23;20154;-85
2022/03/02 09:42:26;;;;;;;24.73;15.77;;;11.50;91.10;;;;;;6121506;23;20152;-85
2022/03/02 09:45:01;;;;;;;25.33;15.27;;;11.60;90.50;;;;;;6121935;23;20152;-84
2022/03/02 09:47:50;;;;;;;27.20;14.60;;;11.60;90.40;;;;;;6121410;23;20174;-86
2022/03/02 09:50:22;;;;;;;28.37;14.27;;;11.50;90.30;;;;;;6121783;23;20173;-85
2022/03/02 09:52:51;;;;;;;24.17;14.27;;;11.60;90.60;;;;;;6121581;23;20163;-85
2022/03/02 09:55:22;;;;;;;24.57;14.33;;;11.80;90.40;;;;;;6121471;23;20161;-85
2022/03/02 09:57:59;;;;;;;24.17;13.97;;;12.10;87.70;;;;;;6121486;23;20593;-85
2022/03/02 10:00:27;;;;;;;24.00;12.77;;;12.10;89.20;;;;;;6112364;23;20248;-85
2022/03/02 10:02:55;;;;;;;21.57;13.67;;;12.20;87.80;;;;;;6121457;23;20165;-85
2022/03/02 10:05:26;;;;;;;23.00;13.60;;;12.20;86.50;;;;;;6121652;23;20157;-85
2022/03/02 10:07:59;;;;;;;21.83;12.33;;;12.10;86.90;;;;;;6120721;23;20509;-85
2022/03/02 10:10:32;;;;;;;20.23;12.03;;;12.30;85.60;;;;;;6121275;23;20243;-84
2022/03/02 10:13:01;;;;;;;23.53;13.17;;;12.50;83.40;;;;;;6121377;23;20149;-85
2022/03/02 10:15:28;;;;;;;19.80;11.63;;;12.70;82.30;;;;;;6121384;23;20164;-85
2022/03/02 10:17:58;;;;;;;21.20;11.87;;;12.80;81.40;;;;;;6121460;23;20156;-85
2022/03/02 10:20:29;;;;;;;19.90;11.77;;;12.80;81.40;;;;;;6121226;23;20151;-85
2022/03/02 10:23:28;;;;;;;16.90;11.10;;;12.90;79.50;;;;;;6121392;23;20178;-85
2022/03/02 10:26:13;;;;;;;19.27;11.93;;;12.90;78.50;;;;;;6121551;23;20153;-84
2022/03/02 10:28:46;;;;;;;20.73;12.20;;;13.10;77.90;;;;;;6121655;23;20240;-85
2022/03/02 10:31:29;;;;;;;19.50;12.10;;;12.90;79.30;;;;;;6121049;23;20204;-85
2022/03/02 10:34:28;;;;;;;16.53;12.00;;;13.10;79.90;;;;;;6120454;23;20157;-85
2022/03/02 10:37:29;;;;;;;19.93;11.77;;;13.00;79.60;;;;;;6115426;23;20153;-85
2022/03/02 10:40:17;;;;;;;18.83;11.77;;;13.30;78.60;;;;;;6116982;23;20216;-86
2022/03/02 10:42:53;;;;;;;22.33;12.73;;;13.40;77.60;;;;;;6121631;23;20225;-85
2022/03/02 10:45:28;;;;;;;17.80;12.10;;;13.60;77.90;;;;;;6120992;23;20153;-86
2022/03/02 10:48:13;;;;;;;19.20;11.63;;;13.70;77.80;;;;;;6121119;23;20229;-85
2022/03/02 10:50:42;;;;;;;21.00;12.67;;;13.50;78.00;;;;;;6120767;23;20149;-86
2022/03/02 10:53:18;;;;;;;30.93;14.00;;;13.50;77.80;;;;;;6120755;23;20621;-86
2022/03/02 10:55:48;;;;;;;24.33;13.83;;;13.70;79.30;;;;;;6120977;23;20146;-85
2022/03/02 10:58:17;;;;;;;22.77;13.07;;;13.90;79.10;;;;;;6121077;23;20158;-86
2022/03/02 11:00:45;;;;;;;22.00;13.73;;;14.00;79.30;;;;;;6120973;23;20241;-85
2022/03/02 11:03:14;;;;;;;23.57;13.73;;;14.30;79.20;;;;;;6121192;23;20150;-85
2022/03/02 11:05:40;;;;;;;22.43;13.60;;;14.80;78.30;;;;;;6120592;23;20536;-84
2022/03/02 11:08:07;;;;;;;22.30;12.63;;;15.10;77.50;;;;;;6121044;23;20210;-85
2022/03/02 11:10:37;;;;;;;24.87;13.87;;;15.70;76.20;;;;;;6120564;23;20150;-85
2022/03/02 11:13:14;;;;;;;20.37;14.27;;;16.40;76.10;;;;;;6120888;23;20154;-85
2022/03/02 11:15:50;;;;;;;20.17;13.27;;;17.00;74.80;;;;;;6120459;23;20156;-85
2022/03/02 11:18:33;;;;;;;18.43;13.03;;;17.70;71.10;;;;;;6121110;23;20171;-86
2022/03/02 11:21:05;;;;;;;17.07;11.37;;;18.00;68.90;;;;;;6120734;23;20146;-86
2022/03/02 11:23:39;;;;;;;21.50;12.73;;;18.30;67.70;;;;;;6120641;23;20164;-86
2022/03/02 11:26:32;;;;;;;18.83;12.83;;;18.70;67.20;;;;;;6120852;23;20570;-86
2022/03/02 11:29:11;;;;;;;19.57;12.87;;;19.40;64.60;;;;;;6109271;23;20193;-86
2022/03/02 11:31:44;;;;;;;17.70;12.17;;;20.10;62.80;;;;;;6120377;23;20253;-85
2022/03/02 11:34:29;;;;;;;22.97;13.30;;;20.50;61.60;;;;;;6120755;23;20150;-85
2022/03/02 11:36:59;;;;;;;18.07;12.17;;;20.80;60.90;;;;;;6120822;23;20152;-85
2022/03/02 11:39:27;;;;;;;15.47;11.60;;;20.90;61.20;;;;;;6120381;23;20174;-86
2022/03/02 11:41:57;;;;;;;17.07;12.17;;;21.30;59.40;;;;;;6120411;23;20602;-86
2022/03/02 11:44:30;;;;;;;18.10;12.23;;;21.60;58.40;;;;;;6120634;23;20158;-86
2022/03/02 11:46:59;;;;;;;16.50;11.77;;;21.30;58.10;;;;;;6121900;23;20178;-86
2022/03/02 11:49:37;;;;;;;19.23;13.03;;;21.00;57.50;;;;;;6121782;23;20257;-87
2022/03/02 11:52:09;;;;;;;20.80;12.30;;;20.30;58.70;;;;;;6121776;23;20156;-86
2022/03/02 11:54:47;;;;;;;18.50;12.10;;;19.80;60.20;;;;;;6122029;23;20150;-86
2022/03/02 11:57:18;;;;;;;21.40;13.13;;;20.30;59.00;;;;;;6121872;23;20150;-86
2022/03/02 11:59:46;;;;;;;18.80;12.87;;;20.20;59.10;;;;;;6121784;23;20149;-85
2022/03/02 12:02:19;;;;;;;19.20;12.97;;;20.20;58.20;;;;;;6121957;23;20152;-85
2022/03/02 12:04:58;;;;;;;19.03;12.70;;;20.10;58.00;;;;;;6121640;23;20184;-86
2022/03/02 12:07:24;;;;;;;18.00;12.90;;;20.20;58.00;;;;;;6121558;23;20150;-87
2022/03/02 12:09:50;;;;;;;18.83;12.77;;;19.40;59.20;;;;;;6121848;23;20174;-86
2022/03/02 12:12:22;;;;;;;17.90;12.57;;;19.50;58.20;;;;;;6121877;23;20149;-85
2022/03/02 12:14:56;;;;;;;19.00;12.53;;;19.40;57.50;;;;;;6122003;23;20165;-86
2022/03/02 12:17:28;;;;;;;19.53;12.20;;;19.40;57.70;;;;;;6121903;23;20574;-85
2022/03/02 12:20:05;;;;;;;18.17;12.07;;;19.50;57.60;;;;;;6121496;23;20180;-85
2022/03/02 12:22:34;;;;;;;22.23;12.37;;;19.50;56.40;;;;;;6121563;23;20159;-84
2022/03/02 12:25:04;;;;;;;20.50;12.13;;;19.70;56.30;;;;;;6121881;23;20180;-85
2022/03/02 12:27:30;;;;;;;19.03;11.47;;;20.10;55.80;;;;;;6121256;23;20170;-84
2022/03/02 12:30:03;;;;;;;17.53;11.73;;;20.10;55.60;;;;;;6121658;23;20142;-86
2022/03/02 12:32:34;;;;;;;16.97;11.63;;;20.40;54.40;;;;;;6121290;23;20244;-86
2022/03/02 12:35:02;;;;;;;18.47;11.10;;;20.40;53.90;;;;;;6123131;23;20142;-86
2022/03/02 12:37:30;;;;;;;18.00;10.93;;;20.30;54.30;;;;;;6121835;23;20597;-85
2022/03/02 12:39:56;;;;;;;18.43;11.23;;;20.60;53.30;;;;;;6121647;23;20232;-85
2022/03/02 12:42:28;;;;;;;17.07;10.40;;;21.30;51.70;;;;;;6122876;23;20214;-85
2022/03/02 12:44:56;;;;;;;16.33;10.93;;;21.80;51.00;;;;;;6121693;23;20158;-86